sensor_id;sensor_type;location;lat;lon;timestamp;P1;durP1;ratioP1;P2;durP2;ratioP2
50555;SDS011;36508;52.512;13.450;2023-04-06T00:00:31;8.97;;;8.17;;
50555;SDS011;36508;52.512;13.450;2023-04-06T00:02:57;10.40;;;9.10;;
50555;SDS011;36508;52.512;13.450;2023-04-06T00:05:22;10.03;;;9.03;;
50555;SDS011;36508;52.512;13.450;2023-04-06T00:07:48;10.03;;;9.07;;
50555;SDS011;36508;52.512;13.450;2023-04-06T00:10:15;8.43;;;7.63;;
50555;SDS011;36508;52.512;13.450;2023-04-06T00:12:41;9.67;;;8.53;;
50555;SDS011;36508;52.512;13.450;2023-04-06T00:15:07;14.80;;;13.27;;
50555;SDS011;36508;52.512;13.450;2023-04-06T00:17:33;9.70;;;9.00;;
50555;SDS011;36508;52.512;13.450;2023-04-06T00:19:59;8.40;;;7.70;;
50555;SDS011;36508;52.512;13.450;2023-04-06T00:22:25;9.57;;;8.60;;
50555;SDS011;36508;52.512;13.450;2023-04-06T00:24:50;7.83;;;7.20;;
50555;SDS011;36508;52.512;13.450;2023-04-06T00:27:16;9.03;;;8.20;;
50555;SDS011;36508;52.512;13.450;2023-04-06T00:29:43;8.53;;;7.73;;
50555;SDS011;36508;52.512;13.450;2023-04-06T00:32:08;9.10;;;7.73;;
50555;SDS011;36508;52.512;13.450;2023-04-06T00:34:34;8.33;;;7.53;;
50555;SDS011;36508;52.512;13.450;2023-04-06T00:37:00;8.90;;;8.10;;
50555;SDS011;36508;52.512;13.450;2023-04-06T00:39:25;8.20;;;7.47;;
50555;SDS011;36508;52.512;13.450;2023-04-06T00:41:51;8.43;;;7.60;;
50555;SDS011;36508;52.512;13.450;2023-04-06T00:44:18;7.37;;;6.63;;
50555;SDS011;36508;52.512;13.450;2023-04-06T00:46:44;9.13;;;7.87;;
50555;SDS011;36508;52.512;13.450;2023-04-06T00:49:10;8.10;;;7.40;;
50555;SDS011;36508;52.512;13.450;2023-04-06T00:51:36;14.07;;;12.77;;
50555;SDS011;36508;52.512;13.450;2023-04-06T00:54:01;11.07;;;10.07;;
50555;SDS011;36508;52.512;13.450;2023-04-06T00:56:27;10.27;;;9.33;;
50555;SDS011;36508;52.512;13.450;2023-04-06T00:58:53;8.60;;;8.00;;
50555;SDS011;36508;52.512;13.450;2023-04-06T01:01:19;7.57;;;7.00;;
50555;SDS011;36508;52.512;13.450;2023-04-06T01:03:45;6.93;;;6.43;;
50555;SDS011;36508;52.512;13.450;2023-04-06T01:06:13;7.33;;;6.50;;
50555;SDS011;36508;52.512;13.450;2023-04-06T01:08:45;9.00;;;8.20;;
50555;SDS011;36508;52.512;13.450;2023-04-06T01:11:11;14.30;;;7.80;;
50555;SDS011;36508;52.512;13.450;2023-04-06T01:13:37;7.40;;;6.90;;
50555;SDS011;36508;52.512;13.450;2023-04-06T01:16:02;7.57;;;6.97;;
50555;SDS011;36508;52.512;13.450;2023-04-06T01:18:28;8.57;;;7.97;;
50555;SDS011;36508;52.512;13.450;2023-04-06T01:20:54;8.73;;;8.10;;
50555;SDS011;36508;52.512;13.450;2023-04-06T01:23:20;7.97;;;7.37;;
50555;SDS011;36508;52.512;13.450;2023-04-06T01:25:46;10.07;;;7.43;;
50555;SDS011;36508;52.512;13.450;2023-04-06T01:28:12;9.67;;;6.73;;
50555;SDS011;36508;52.512;13.450;2023-04-06T01:30:37;7.93;;;7.03;;
50555;SDS011;36508;52.512;13.450;2023-04-06T01:33:03;6.63;;;6.23;;
50555;SDS011;36508;52.512;13.450;2023-04-06T01:35:29;7.30;;;6.80;;
50555;SDS011;36508;52.512;13.450;2023-04-06T01:37:55;8.10;;;7.30;;
50555;SDS011;36508;52.512;13.450;2023-04-06T01:40:21;7.73;;;7.13;;
50555;SDS011;36508;52.512;13.450;2023-04-06T01:42:47;11.40;;;7.20;;
50555;SDS011;36508;52.512;13.450;2023-04-06T01:45:12;8.50;;;7.80;;
50555;SDS011;36508;52.512;13.450;2023-04-06T01:47:38;7.47;;;6.80;;
50555;SDS011;36508;52.512;13.450;2023-04-06T01:50:04;8.00;;;7.20;;
50555;SDS011;36508;52.512;13.450;2023-04-06T01:52:32;6.77;;;6.27;;
50555;SDS011;36508;52.512;13.450;2023-04-06T01:54:58;6.60;;;6.20;;
50555;SDS011;36508;52.512;13.450;2023-04-06T01:57:24;6.57;;;6.03;;
50555;SDS011;36508;52.512;13.450;2023-04-06T01:59:50;8.47;;;7.43;;
50555;SDS011;36508;52.512;13.450;2023-04-06T02:02:16;7.23;;;6.63;;
50555;SDS011;36508;52.512;13.450;2023-04-06T02:04:41;10.70;;;7.33;;
50555;SDS011;36508;52.512;13.450;2023-04-06T02:07:07;7.73;;;7.13;;
50555;SDS011;36508;52.512;13.450;2023-04-06T02:09:33;11.50;;;7.20;;
50555;SDS011;36508;52.512;13.450;2023-04-06T02:12:01;8.03;;;7.27;;
50555;SDS011;36508;52.512;13.450;2023-04-06T02:14:27;9.30;;;8.40;;
50555;SDS011;36508;52.512;13.450;2023-04-06T02:16:53;10.53;;;9.00;;
50555;SDS011;36508;52.512;13.450;2023-04-06T02:19:19;9.10;;;8.40;;
50555;SDS011;36508;52.512;13.450;2023-04-06T02:21:44;11.00;;;10.07;;
50555;SDS011;36508;52.512;13.450;2023-04-06T02:24:10;11.67;;;10.10;;
50555;SDS011;36508;52.512;13.450;2023-04-06T02:26:38;9.53;;;8.60;;
50555;SDS011;36508;52.512;13.450;2023-04-06T02:29:04;15.20;;;10.70;;
50555;SDS011;36508;52.512;13.450;2023-04-06T02:31:31;9.23;;;8.60;;
50555;SDS011;36508;52.512;13.450;2023-04-06T02:33:57;10.27;;;9.30;;
50555;SDS011;36508;52.512;13.450;2023-04-06T02:36:23;10.47;;;9.27;;
50555;SDS011;36508;52.512;13.450;2023-04-06T02:38:48;10.50;;;9.40;;
50555;SDS011;36508;52.512;13.450;2023-04-06T02:41:14;9.70;;;8.97;;
50555;SDS011;36508;52.512;13.450;2023-04-06T02:43:40;10.87;;;9.07;;
50555;SDS011;36508;52.512;13.450;2023-04-06T02:46:05;10.93;;;8.80;;
50555;SDS011;36508;52.512;13.450;2023-04-06T02:48:31;10.27;;;9.23;;
50555;SDS011;36508;52.512;13.450;2023-04-06T02:50:57;8.60;;;8.00;;
50555;SDS011;36508;52.512;13.450;2023-04-06T02:53:22;10.00;;;9.10;;
50555;SDS011;36508;52.512;13.450;2023-04-06T02:55:48;12.20;;;11.17;;
50555;SDS011;36508;52.512;13.450;2023-04-06T02:58:13;11.93;;;10.67;;
50555;SDS011;36508;52.512;13.450;2023-04-06T03:00:39;12.40;;;11.50;;
50555;SDS011;36508;52.512;13.450;2023-04-06T03:03:05;11.27;;;10.23;;
50555;SDS011;36508;52.512;13.450;2023-04-06T03:05:32;10.57;;;9.77;;
50555;SDS011;36508;52.512;13.450;2023-04-06T03:07:58;11.77;;;10.60;;
50555;SDS011;36508;52.512;13.450;2023-04-06T03:10:23;12.00;;;11.03;;
50555;SDS011;36508;52.512;13.450;2023-04-06T03:12:49;11.70;;;10.70;;
50555;SDS011;36508;52.512;13.450;2023-04-06T03:15:15;12.17;;;11.27;;
50555;SDS011;36508;52.512;13.450;2023-04-06T03:17:40;11.63;;;10.83;;
50555;SDS011;36508;52.512;13.450;2023-04-06T03:20:06;12.53;;;11.53;;
50555;SDS011;36508;52.512;13.450;2023-04-06T03:22:32;12.43;;;11.50;;
50555;SDS011;36508;52.512;13.450;2023-04-06T03:24:57;15.70;;;14.20;;
50555;SDS011;36508;52.512;13.450;2023-04-06T03:27:23;15.63;;;14.13;;
50555;SDS011;36508;52.512;13.450;2023-04-06T03:29:48;11.07;;;10.27;;
50555;SDS011;36508;52.512;13.450;2023-04-06T03:32:14;11.17;;;10.27;;
50555;SDS011;36508;52.512;13.450;2023-04-06T03:34:40;11.77;;;10.67;;
50555;SDS011;36508;52.512;13.450;2023-04-06T03:37:05;11.07;;;9.83;;
50555;SDS011;36508;52.512;13.450;2023-04-06T03:39:31;19.53;;;17.83;;
50555;SDS011;36508;52.512;13.450;2023-04-06T03:41:57;17.27;;;15.57;;
50555;SDS011;36508;52.512;13.450;2023-04-06T03:44:22;13.30;;;12.13;;
50555;SDS011;36508;52.512;13.450;2023-04-06T03:46:48;12.83;;;11.87;;
50555;SDS011;36508;52.512;13.450;2023-04-06T03:49:13;13.20;;;11.93;;
50555;SDS011;36508;52.512;13.450;2023-04-06T03:51:39;12.63;;;10.50;;
50555;SDS011;36508;52.512;13.450;2023-04-06T03:54:05;12.07;;;10.80;;
50555;SDS011;36508;52.512;13.450;2023-04-06T03:56:30;11.07;;;10.17;;
50555;SDS011;36508;52.512;13.450;2023-04-06T03:58:56;12.10;;;10.90;;
50555;SDS011;36508;52.512;13.450;2023-04-06T04:01:21;14.57;;;13.10;;
50555;SDS011;36508;52.512;13.450;2023-04-06T04:03:47;15.40;;;12.30;;
50555;SDS011;36508;52.512;13.450;2023-04-06T04:06:13;11.63;;;10.30;;
50555;SDS011;36508;52.512;13.450;2023-04-06T04:08:38;20.27;;;16.50;;
50555;SDS011;36508;52.512;13.450;2023-04-06T04:11:04;14.13;;;12.87;;
50555;SDS011;36508;52.512;13.450;2023-04-06T04:13:29;11.23;;;10.43;;
50555;SDS011;36508;52.512;13.450;2023-04-06T04:15:55;10.97;;;9.90;;
50555;SDS011;36508;52.512;13.450;2023-04-06T04:18:21;11.83;;;10.93;;
50555;SDS011;36508;52.512;13.450;2023-04-06T04:20:47;11.27;;;10.43;;
50555;SDS011;36508;52.512;13.450;2023-04-06T04:23:12;12.07;;;10.80;;
50555;SDS011;36508;52.512;13.450;2023-04-06T04:25:38;13.60;;;12.17;;
50555;SDS011;36508;52.512;13.450;2023-04-06T04:28:03;16.63;;;14.90;;
50555;SDS011;36508;52.512;13.450;2023-04-06T04:30:29;14.77;;;13.47;;
50555;SDS011;36508;52.512;13.450;2023-04-06T04:32:55;12.00;;;10.80;;
50555;SDS011;36508;52.512;13.450;2023-04-06T04:35:20;15.10;;;13.00;;
50555;SDS011;36508;52.512;13.450;2023-04-06T04:37:46;13.10;;;11.80;;
50555;SDS011;36508;52.512;13.450;2023-04-06T04:40:12;16.80;;;13.37;;
50555;SDS011;36508;52.512;13.450;2023-04-06T04:42:37;15.80;;;12.97;;
50555;SDS011;36508;52.512;13.450;2023-04-06T04:45:03;10.63;;;9.73;;
50555;SDS011;36508;52.512;13.450;2023-04-06T04:47:29;10.83;;;9.60;;
50555;SDS011;36508;52.512;13.450;2023-04-06T04:49:55;10.60;;;9.47;;
50555;SDS011;36508;52.512;13.450;2023-04-06T04:52:20;10.40;;;9.33;;
50555;SDS011;36508;52.512;13.450;2023-04-06T04:54:46;12.53;;;10.87;;
50555;SDS011;36508;52.512;13.450;2023-04-06T04:57:12;11.57;;;10.17;;
50555;SDS011;36508;52.512;13.450;2023-04-06T04:59:38;15.50;;;13.90;;
50555;SDS011;36508;52.512;13.450;2023-04-06T05:02:03;11.33;;;9.87;;
50555;SDS011;36508;52.512;13.450;2023-04-06T05:04:29;12.63;;;11.03;;
50555;SDS011;36508;52.512;13.450;2023-04-06T05:07:02;15.60;;;8.90;;
50555;SDS011;36508;52.512;13.450;2023-04-06T05:09:31;13.50;;;9.90;;
50555;SDS011;36508;52.512;13.450;2023-04-06T05:12:00;12.50;;;10.80;;
50555;SDS011;36508;52.512;13.450;2023-04-06T05:14:26;15.17;;;10.87;;
50555;SDS011;36508;52.512;13.450;2023-04-06T05:16:53;12.50;;;10.50;;
50555;SDS011;36508;52.512;13.450;2023-04-06T05:19:19;11.70;;;8.30;;
50555;SDS011;36508;52.512;13.450;2023-04-06T05:21:44;11.50;;;10.43;;
50555;SDS011;36508;52.512;13.450;2023-04-06T05:24:10;13.13;;;10.00;;
50555;SDS011;36508;52.512;13.450;2023-04-06T05:26:36;12.97;;;10.10;;
50555;SDS011;36508;52.512;13.450;2023-04-06T05:29:02;10.57;;;9.47;;
50555;SDS011;36508;52.512;13.450;2023-04-06T05:31:30;16.13;;;12.57;;
50555;SDS011;36508;52.512;13.450;2023-04-06T05:33:56;11.13;;;9.97;;
50555;SDS011;36508;52.512;13.450;2023-04-06T05:36:22;9.13;;;8.43;;
50555;SDS011;36508;52.512;13.450;2023-04-06T05:38:47;11.50;;;9.80;;
50555;SDS011;36508;52.512;13.450;2023-04-06T05:41:15;13.33;;;9.87;;
50555;SDS011;36508;52.512;13.450;2023-04-06T05:43:40;16.03;;;11.20;;
50555;SDS011;36508;52.512;13.450;2023-04-06T05:46:06;15.13;;;10.67;;
50555;SDS011;36508;52.512;13.450;2023-04-06T05:48:32;10.37;;;9.57;;
50555;SDS011;36508;52.512;13.450;2023-04-06T05:50:57;14.23;;;10.37;;
50555;SDS011;36508;52.512;13.450;2023-04-06T05:53:23;16.90;;;10.10;;
50555;SDS011;36508;52.512;13.450;2023-04-06T05:55:51;9.80;;;8.90;;
50555;SDS011;36508;52.512;13.450;2023-04-06T05:58:16;13.80;;;10.33;;
50555;SDS011;36508;52.512;13.450;2023-04-06T06:00:42;12.60;;;11.40;;
50555;SDS011;36508;52.512;13.450;2023-04-06T06:03:10;15.70;;;10.77;;
50555;SDS011;36508;52.512;13.450;2023-04-06T06:05:36;11.50;;;10.40;;
50555;SDS011;36508;52.512;13.450;2023-04-06T06:08:02;17.90;;;11.23;;
50555;SDS011;36508;52.512;13.450;2023-04-06T06:10:28;12.20;;;10.83;;
50555;SDS011;36508;52.512;13.450;2023-04-06T06:12:53;10.63;;;9.63;;
50555;SDS011;36508;52.512;13.450;2023-04-06T06:15:19;11.50;;;10.50;;
50555;SDS011;36508;52.512;13.450;2023-04-06T06:17:45;11.93;;;10.70;;
50555;SDS011;36508;52.512;13.450;2023-04-06T06:20:11;13.97;;;9.77;;
50555;SDS011;36508;52.512;13.450;2023-04-06T06:22:37;16.90;;;12.33;;
50555;SDS011;36508;52.512;13.450;2023-04-06T06:25:02;14.43;;;9.33;;
50555;SDS011;36508;52.512;13.450;2023-04-06T06:27:28;14.87;;;10.07;;
50555;SDS011;36508;52.512;13.450;2023-04-06T06:29:54;11.33;;;10.13;;
50555;SDS011;36508;52.512;13.450;2023-04-06T06:32:20;11.50;;;8.87;;
50555;SDS011;36508;52.512;13.450;2023-04-06T06:34:46;10.03;;;9.03;;
50555;SDS011;36508;52.512;13.450;2023-04-06T06:37:11;11.40;;;10.20;;
50555;SDS011;36508;52.512;13.450;2023-04-06T06:39:37;10.57;;;9.57;;
50555;SDS011;36508;52.512;13.450;2023-04-06T06:42:02;11.73;;;10.80;;
50555;SDS011;36508;52.512;13.450;2023-04-06T06:44:28;13.40;;;9.90;;
50555;SDS011;36508;52.512;13.450;2023-04-06T06:46:54;11.07;;;10.13;;
50555;SDS011;36508;52.512;13.450;2023-04-06T06:49:20;10.93;;;9.97;;
50555;SDS011;36508;52.512;13.450;2023-04-06T06:51:45;9.97;;;9.17;;
50555;SDS011;36508;52.512;13.450;2023-04-06T06:54:11;19.30;;;10.70;;
50555;SDS011;36508;52.512;13.450;2023-04-06T06:56:37;13.00;;;9.50;;
50555;SDS011;36508;52.512;13.450;2023-04-06T06:59:04;10.83;;;9.73;;
50555;SDS011;36508;52.512;13.450;2023-04-06T07:01:31;10.77;;;9.70;;
50555;SDS011;36508;52.512;13.450;2023-04-06T07:03:58;10.87;;;9.60;;
50555;SDS011;36508;52.512;13.450;2023-04-06T07:06:24;10.93;;;9.90;;
50555;SDS011;36508;52.512;13.450;2023-04-06T07:08:51;10.50;;;9.50;;
50555;SDS011;36508;52.512;13.450;2023-04-06T07:11:17;11.27;;;10.00;;
50555;SDS011;36508;52.512;13.450;2023-04-06T07:13:42;10.17;;;8.70;;
50555;SDS011;36508;52.512;13.450;2023-04-06T07:16:08;12.70;;;9.73;;
50555;SDS011;36508;52.512;13.450;2023-04-06T07:18:34;22.67;;;10.20;;
50555;SDS011;36508;52.512;13.450;2023-04-06T07:20:59;13.43;;;9.23;;
50555;SDS011;36508;52.512;13.450;2023-04-06T07:23:25;10.20;;;9.27;;
50555;SDS011;36508;52.512;13.450;2023-04-06T07:25:51;9.10;;;8.20;;
50555;SDS011;36508;52.512;13.450;2023-04-06T07:28:18;10.70;;;7.73;;
50555;SDS011;36508;52.512;13.450;2023-04-06T07:30:44;12.27;;;11.17;;
50555;SDS011;36508;52.512;13.450;2023-04-06T07:33:10;10.30;;;9.30;;
50555;SDS011;36508;52.512;13.450;2023-04-06T07:35:35;11.13;;;9.33;;
50555;SDS011;36508;52.512;13.450;2023-04-06T07:38:02;10.90;;;9.80;;
50555;SDS011;36508;52.512;13.450;2023-04-06T07:40:28;8.43;;;7.63;;
50555;SDS011;36508;52.512;13.450;2023-04-06T07:42:53;12.10;;;10.77;;
50555;SDS011;36508;52.512;13.450;2023-04-06T07:45:20;9.10;;;8.30;;
50555;SDS011;36508;52.512;13.450;2023-04-06T07:47:45;10.60;;;9.33;;
50555;SDS011;36508;52.512;13.450;2023-04-06T07:50:11;9.57;;;8.47;;
50555;SDS011;36508;52.512;13.450;2023-04-06T07:52:38;10.73;;;7.93;;
50555;SDS011;36508;52.512;13.450;2023-04-06T07:55:04;12.20;;;8.40;;
50555;SDS011;36508;52.512;13.450;2023-04-06T07:57:30;8.30;;;7.50;;
50555;SDS011;36508;52.512;13.450;2023-04-06T07:59:56;12.53;;;8.10;;
50555;SDS011;36508;52.512;13.450;2023-04-06T08:02:21;8.70;;;7.43;;
50555;SDS011;36508;52.512;13.450;2023-04-06T08:04:47;11.57;;;10.57;;
50555;SDS011;36508;52.512;13.450;2023-04-06T08:07:13;14.23;;;11.63;;
50555;SDS011;36508;52.512;13.450;2023-04-06T08:09:39;13.27;;;12.00;;
50555;SDS011;36508;52.512;13.450;2023-04-06T08:12:05;17.30;;;13.90;;
50555;SDS011;36508;52.512;13.450;2023-04-06T08:14:30;12.50;;;11.30;;
50555;SDS011;36508;52.512;13.450;2023-04-06T08:16:56;10.10;;;9.00;;
50555;SDS011;36508;52.512;13.450;2023-04-06T08:19:22;6.83;;;5.70;;
50555;SDS011;36508;52.512;13.450;2023-04-06T08:21:48;6.63;;;5.67;;
50555;SDS011;36508;52.512;13.450;2023-04-06T08:24:13;8.10;;;5.00;;
50555;SDS011;36508;52.512;13.450;2023-04-06T08:26:40;5.67;;;4.60;;
50555;SDS011;36508;52.512;13.450;2023-04-06T08:29:05;6.63;;;4.23;;
50555;SDS011;36508;52.512;13.450;2023-04-06T08:31:34;5.40;;;4.97;;
50555;SDS011;36508;52.512;13.450;2023-04-06T08:34:00;5.40;;;4.00;;
50555;SDS011;36508;52.512;13.450;2023-04-06T08:36:27;5.10;;;4.60;;
50555;SDS011;36508;52.512;13.450;2023-04-06T08:38:52;5.37;;;4.87;;
50555;SDS011;36508;52.512;13.450;2023-04-06T08:41:18;6.03;;;5.07;;
50555;SDS011;36508;52.512;13.450;2023-04-06T08:43:49;4.30;;;3.90;;
50555;SDS011;36508;52.512;13.450;2023-04-06T08:46:21;5.93;;;5.33;;
50555;SDS011;36508;52.512;13.450;2023-04-06T08:48:47;5.83;;;5.33;;
50555;SDS011;36508;52.512;13.450;2023-04-06T08:51:16;4.50;;;4.10;;
50555;SDS011;36508;52.512;13.450;2023-04-06T08:53:43;5.43;;;4.93;;
50555;SDS011;36508;52.512;13.450;2023-04-06T08:56:12;4.43;;;4.10;;
50555;SDS011;36508;52.512;13.450;2023-04-06T08:58:39;4.70;;;3.80;;
50555;SDS011;36508;52.512;13.450;2023-04-06T09:01:08;10.00;;;3.53;;
50555;SDS011;36508;52.512;13.450;2023-04-06T09:03:38;13.80;;;4.13;;
50555;SDS011;36508;52.512;13.450;2023-04-06T09:06:05;3.13;;;2.90;;
50555;SDS011;36508;52.512;13.450;2023-04-06T09:08:32;3.87;;;3.60;;
50555;SDS011;36508;52.512;13.450;2023-04-06T09:11:00;4.60;;;4.20;;
50555;SDS011;36508;52.512;13.450;2023-04-06T09:13:27;5.80;;;3.40;;
50555;SDS011;36508;52.512;13.450;2023-04-06T09:16:02;3.80;;;3.10;;
50555;SDS011;36508;52.512;13.450;2023-04-06T09:18:29;11.03;;;4.20;;
50555;SDS011;36508;52.512;13.450;2023-04-06T09:21:00;3.80;;;3.50;;
50555;SDS011;36508;52.512;13.450;2023-04-06T09:23:26;4.13;;;3.73;;
50555;SDS011;36508;52.512;13.450;2023-04-06T09:26:02;3.90;;;3.37;;
50555;SDS011;36508;52.512;13.450;2023-04-06T09:28:52;3.67;;;2.67;;
50555;SDS011;36508;52.512;13.450;2023-04-06T09:33:48;6.17;;;4.27;;
50555;SDS011;36508;52.512;13.450;2023-04-06T09:36:15;2.57;;;2.37;;
50555;SDS011;36508;52.512;13.450;2023-04-06T09:38:57;3.80;;;3.43;;
50555;SDS011;36508;52.512;13.450;2023-04-06T09:41:25;5.77;;;3.20;;
50555;SDS011;36508;52.512;13.450;2023-04-06T09:46:38;4.10;;;3.80;;
50555;SDS011;36508;52.512;13.450;2023-04-06T09:49:04;4.13;;;3.20;;
50555;SDS011;36508;52.512;13.450;2023-04-06T09:51:36;2.50;;;2.23;;
50555;SDS011;36508;52.512;13.450;2023-04-06T09:54:15;3.33;;;2.83;;
50555;SDS011;36508;52.512;13.450;2023-04-06T09:56:48;2.87;;;2.77;;
50555;SDS011;36508;52.512;13.450;2023-04-06T10:01:59;3.50;;;3.20;;
50555;SDS011;36508;52.512;13.450;2023-04-06T10:07:03;4.63;;;2.60;;
50555;SDS011;36508;52.512;13.450;2023-04-06T10:09:31;3.50;;;3.20;;
50555;SDS011;36508;52.512;13.450;2023-04-06T10:12:10;6.80;;;2.83;;
50555;SDS011;36508;52.512;13.450;2023-04-06T10:14:37;3.00;;;2.80;;
50555;SDS011;36508;52.512;13.450;2023-04-06T10:17:04;3.23;;;2.37;;
50555;SDS011;36508;52.512;13.450;2023-04-06T10:22:20;3.10;;;2.80;;
50555;SDS011;36508;52.512;13.450;2023-04-06T10:25:08;3.60;;;3.30;;
50555;SDS011;36508;52.512;13.450;2023-04-06T10:27:34;4.40;;;2.17;;
50555;SDS011;36508;52.512;13.450;2023-04-06T10:30:00;4.50;;;4.20;;
50555;SDS011;36508;52.512;13.450;2023-04-06T10:32:34;2.47;;;2.13;;
50555;SDS011;36508;52.512;13.450;2023-04-06T10:35:09;3.57;;;3.37;;
50555;SDS011;36508;52.512;13.450;2023-04-06T10:37:49;3.50;;;3.20;;
50555;SDS011;36508;52.512;13.450;2023-04-06T10:40:22;14.67;;;3.57;;
50555;SDS011;36508;52.512;13.450;2023-04-06T10:42:50;3.03;;;2.83;;
50555;SDS011;36508;52.512;13.450;2023-04-06T10:45:20;2.97;;;2.77;;
50555;SDS011;36508;52.512;13.450;2023-04-06T10:47:47;3.13;;;2.93;;
50555;SDS011;36508;52.512;13.450;2023-04-06T10:50:14;2.00;;;1.53;;
50555;SDS011;36508;52.512;13.450;2023-04-06T10:52:44;2.67;;;2.40;;
50555;SDS011;36508;52.512;13.450;2023-04-06T10:55:11;1.90;;;1.80;;
50555;SDS011;36508;52.512;13.450;2023-04-06T10:57:38;3.80;;;3.50;;
50555;SDS011;36508;52.512;13.450;2023-04-06T11:00:04;2.60;;;2.50;;
50555;SDS011;36508;52.512;13.450;2023-04-06T11:02:31;5.73;;;4.93;;
50555;SDS011;36508;52.512;13.450;2023-04-06T11:04:57;5.50;;;3.10;;
50555;SDS011;36508;52.512;13.450;2023-04-06T11:07:26;3.40;;;3.10;;
50555;SDS011;36508;52.512;13.450;2023-04-06T11:09:54;2.37;;;2.27;;
50555;SDS011;36508;52.512;13.450;2023-04-06T11:12:23;3.10;;;2.87;;
50555;SDS011;36508;52.512;13.450;2023-04-06T11:14:57;7.53;;;4.23;;
50555;SDS011;36508;52.512;13.450;2023-04-06T11:17:31;2.70;;;2.57;;
50555;SDS011;36508;52.512;13.450;2023-04-06T11:19:58;3.00;;;2.80;;
50555;SDS011;36508;52.512;13.450;2023-04-06T11:22:25;3.10;;;2.90;;
50555;SDS011;36508;52.512;13.450;2023-04-06T11:24:51;2.90;;;2.70;;
50555;SDS011;36508;52.512;13.450;2023-04-06T11:27:18;4.10;;;3.70;;
50555;SDS011;36508;52.512;13.450;2023-04-06T11:29:45;2.97;;;2.77;;
50555;SDS011;36508;52.512;13.450;2023-04-06T11:32:11;3.43;;;3.10;;
50555;SDS011;36508;52.512;13.450;2023-04-06T11:34:46;2.37;;;2.27;;
50555;SDS011;36508;52.512;13.450;2023-04-06T11:37:13;2.37;;;2.27;;
50555;SDS011;36508;52.512;13.450;2023-04-06T11:39:40;2.87;;;2.67;;
50555;SDS011;36508;52.512;13.450;2023-04-06T11:42:22;2.43;;;2.33;;
50555;SDS011;36508;52.512;13.450;2023-04-06T11:44:58;3.33;;;3.03;;
50555;SDS011;36508;52.512;13.450;2023-04-06T11:50:31;2.80;;;2.70;;
50555;SDS011;36508;52.512;13.450;2023-04-06T11:53:01;3.10;;;2.90;;
50555;SDS011;36508;52.512;13.450;2023-04-06T11:55:36;3.03;;;2.83;;
50555;SDS011;36508;52.512;13.450;2023-04-06T11:58:03;5.20;;;3.23;;
50555;SDS011;36508;52.512;13.450;2023-04-06T12:00:28;3.93;;;3.70;;
50555;SDS011;36508;52.512;13.450;2023-04-06T12:02:59;6.00;;;5.60;;
50555;SDS011;36508;52.512;13.450;2023-04-06T12:05:25;10.90;;;9.90;;
50555;SDS011;36508;52.512;13.450;2023-04-06T12:07:52;4.60;;;4.20;;
50555;SDS011;36508;52.512;13.450;2023-04-06T12:10:17;5.60;;;5.20;;
50555;SDS011;36508;52.512;13.450;2023-04-06T12:12:43;3.77;;;3.47;;
50555;SDS011;36508;52.512;13.450;2023-04-06T12:15:09;3.07;;;2.87;;
50555;SDS011;36508;52.512;13.450;2023-04-06T12:17:34;2.83;;;2.63;;
50555;SDS011;36508;52.512;13.450;2023-04-06T12:20:01;3.10;;;2.90;;
50555;SDS011;36508;52.512;13.450;2023-04-06T12:22:27;2.40;;;2.30;;
50555;SDS011;36508;52.512;13.450;2023-04-06T12:24:53;2.77;;;2.57;;
50555;SDS011;36508;52.512;13.450;2023-04-06T12:27:19;4.70;;;2.87;;
50555;SDS011;36508;52.512;13.450;2023-04-06T12:29:45;3.13;;;2.93;;
50555;SDS011;36508;52.512;13.450;2023-04-06T12:32:12;5.70;;;5.30;;
50555;SDS011;36508;52.512;13.450;2023-04-06T12:34:37;3.70;;;3.40;;
50555;SDS011;36508;52.512;13.450;2023-04-06T12:37:03;7.10;;;6.60;;
50555;SDS011;36508;52.512;13.450;2023-04-06T12:39:29;6.70;;;6.10;;
50555;SDS011;36508;52.512;13.450;2023-04-06T12:41:55;4.37;;;4.00;;
50555;SDS011;36508;52.512;13.450;2023-04-06T12:44:22;2.43;;;2.33;;
50555;SDS011;36508;52.512;13.450;2023-04-06T12:46:48;3.33;;;3.03;;
50555;SDS011;36508;52.512;13.450;2023-04-06T12:49:15;3.30;;;2.80;;
50555;SDS011;36508;52.512;13.450;2023-04-06T12:51:42;3.70;;;3.50;;
50555;SDS011;36508;52.512;13.450;2023-04-06T12:54:08;4.20;;;3.77;;
50555;SDS011;36508;52.512;13.450;2023-04-06T12:56:33;4.80;;;4.27;;
50555;SDS011;36508;52.512;13.450;2023-04-06T12:59:00;6.07;;;5.67;;
50555;SDS011;36508;52.512;13.450;2023-04-06T13:01:26;4.10;;;3.80;;
50555;SDS011;36508;52.512;13.450;2023-04-06T13:03:52;3.03;;;2.83;;
50555;SDS011;36508;52.512;13.450;2023-04-06T13:06:18;3.03;;;2.83;;
50555;SDS011;36508;52.512;13.450;2023-04-06T13:08:47;5.40;;;5.00;;
50555;SDS011;36508;52.512;13.450;2023-04-06T13:11:14;2.83;;;2.73;;
50555;SDS011;36508;52.512;13.450;2023-04-06T13:13:40;3.17;;;2.90;;
50555;SDS011;36508;52.512;13.450;2023-04-06T13:16:09;9.10;;;4.17;;
50555;SDS011;36508;52.512;13.450;2023-04-06T13:18:35;3.90;;;3.60;;
50555;SDS011;36508;52.512;13.450;2023-04-06T13:21:03;4.07;;;3.47;;
50555;SDS011;36508;52.512;13.450;2023-04-06T13:23:32;13.33;;;11.57;;
50555;SDS011;36508;52.512;13.450;2023-04-06T13:25:59;4.33;;;4.10;;
50555;SDS011;36508;52.512;13.450;2023-04-06T13:28:26;4.57;;;3.87;;
50555;SDS011;36508;52.512;13.450;2023-04-06T13:30:52;6.30;;;5.77;;
50555;SDS011;36508;52.512;13.450;2023-04-06T13:33:18;5.50;;;5.10;;
50555;SDS011;36508;52.512;13.450;2023-04-06T13:35:44;3.13;;;2.93;;
50555;SDS011;36508;52.512;13.450;2023-04-06T13:38:10;4.80;;;4.50;;
50555;SDS011;36508;52.512;13.450;2023-04-06T13:40:38;3.00;;;2.70;;
50555;SDS011;36508;52.512;13.450;2023-04-06T13:43:05;3.67;;;3.40;;
50555;SDS011;36508;52.512;13.450;2023-04-06T13:45:31;6.30;;;6.00;;
50555;SDS011;36508;52.512;13.450;2023-04-06T13:48:00;8.60;;;4.10;;
50555;SDS011;36508;52.512;13.450;2023-04-06T13:50:29;8.17;;;6.70;;
50555;SDS011;36508;52.512;13.450;2023-04-06T13:52:54;4.33;;;3.10;;
50555;SDS011;36508;52.512;13.450;2023-04-06T13:55:21;3.23;;;3.03;;
50555;SDS011;36508;52.512;13.450;2023-04-06T13:57:49;3.10;;;2.90;;
50555;SDS011;36508;52.512;13.450;2023-04-06T14:00:15;3.13;;;2.93;;
50555;SDS011;36508;52.512;13.450;2023-04-06T14:02:41;9.53;;;4.33;;
50555;SDS011;36508;52.512;13.450;2023-04-06T14:05:10;2.60;;;2.40;;
50555;SDS011;36508;52.512;13.450;2023-04-06T14:07:38;3.93;;;3.63;;
50555;SDS011;36508;52.512;13.450;2023-04-06T14:10:05;3.70;;;3.40;;
50555;SDS011;36508;52.512;13.450;2023-04-06T14:12:41;4.93;;;2.83;;
50555;SDS011;36508;52.512;13.450;2023-04-06T14:15:10;5.63;;;4.57;;
50555;SDS011;36508;52.512;13.450;2023-04-06T14:17:36;3.23;;;3.03;;
50555;SDS011;36508;52.512;13.450;2023-04-06T14:20:02;2.70;;;2.60;;
50555;SDS011;36508;52.512;13.450;2023-04-06T14:22:39;4.60;;;3.40;;
50555;SDS011;36508;52.512;13.450;2023-04-06T14:25:06;4.47;;;3.73;;
50555;SDS011;36508;52.512;13.450;2023-04-06T14:27:32;5.07;;;4.57;;
50555;SDS011;36508;52.512;13.450;2023-04-06T14:29:57;3.80;;;3.60;;
50555;SDS011;36508;52.512;13.450;2023-04-06T14:32:23;4.90;;;4.20;;
50555;SDS011;36508;52.512;13.450;2023-04-06T14:34:49;3.60;;;3.40;;
50555;SDS011;36508;52.512;13.450;2023-04-06T14:37:18;4.77;;;4.37;;
50555;SDS011;36508;52.512;13.450;2023-04-06T14:39:45;3.43;;;3.13;;